createdAt,value
2018-03-01T00:01:04.543Z,-6.80
2018-03-01T00:03:32.104Z,-6.80
2018-03-01T00:05:59.636Z,-6.80
2018-03-01T00:08:27.160Z,-6.90
2018-03-01T00:10:54.672Z,-6.90
2018-03-01T00:13:22.202Z,-6.90
2018-03-01T00:15:50.474Z,-7.00
2018-03-01T00:18:18.747Z,-7.00
2018-03-01T00:20:47.047Z,-7.00
2018-03-01T00:23:14.558Z,-7.00
2018-03-01T00:25:42.088Z,-7.00
2018-03-01T00:28:09.599Z,-7.00
2018-03-01T00:30:37.897Z,-7.00
2018-03-01T00:33:05.410Z,-7.00
2018-03-01T00:35:32.916Z,-7.00
2018-03-01T00:38:00.439Z,-7.10
2018-03-01T00:40:27.944Z,-7.10
2018-03-01T00:42:55.446Z,-7.10
2018-03-01T00:45:22.978Z,-7.10
2018-03-01T00:47:50.483Z,-7.10
2018-03-01T00:50:18.782Z,-7.10
2018-03-01T00:52:47.049Z,-7.10
2018-03-01T00:55:15.346Z,-7.10
2018-03-01T00:57:42.850Z,-7.10
2018-03-01T01:00:10.355Z,-7.00
2018-03-01T01:02:37.887Z,-7.00
2018-03-01T01:05:06.174Z,-7.00
2018-03-01T01:07:33.722Z,-7.00
2018-03-01T01:10:01.227Z,-6.90
2018-03-01T01:12:28.738Z,-7.00
2018-03-01T01:14:56.262Z,-6.90
2018-03-01T01:17:23.768Z,-6.90
2018-03-01T01:19:52.058Z,-6.80
2018-03-01T01:22:19.558Z,-6.90
2018-03-01T01:24:47.062Z,-6.80
2018-03-01T01:27:15.355Z,-6.80
2018-03-01T01:29:42.858Z,-6.80
2018-03-01T01:32:10.387Z,-6.80
2018-03-01T01:34:37.896Z,-6.80
2018-03-01T01:37:05.427Z,-6.80
2018-03-01T01:39:32.930Z,-6.80
2018-03-01T01:42:01.194Z,-6.80
2018-03-01T01:44:28.722Z,-6.80
2018-03-01T01:46:56.234Z,-6.80
2018-03-01T01:49:24.527Z,-6.70
2018-03-01T01:51:52.031Z,-6.80
2018-03-01T01:54:19.533Z,-6.70
2018-03-01T01:56:47.058Z,-6.70
2018-03-01T01:59:14.555Z,-6.70
2018-03-01T02:01:42.085Z,-6.70
2018-03-01T02:04:09.585Z,-6.70
2018-03-01T02:06:37.110Z,-6.80
2018-03-01T02:09:05.378Z,-6.70
2018-03-01T02:11:33.647Z,-6.70
2018-03-01T02:14:01.170Z,-6.70
2018-03-01T02:16:28.677Z,-6.70
2018-03-01T02:18:56.965Z,-6.70
2018-03-01T02:21:25.250Z,-6.70
2018-03-01T02:23:52.781Z,-6.80
2018-03-01T02:26:20.286Z,-6.70
2018-03-01T02:28:47.797Z,-6.70
2018-03-01T02:31:15.360Z,-6.80
2018-03-01T02:33:42.851Z,-6.80
2018-03-01T02:36:10.378Z,-6.70
2018-03-01T02:38:38.652Z,-6.70
2018-03-01T02:41:06.935Z,-6.70
2018-03-01T02:43:35.230Z,-6.80
2018-03-01T02:46:02.732Z,-6.80
2018-03-01T02:48:30.262Z,-6.80
2018-03-01T02:50:57.762Z,-6.80
2018-03-01T02:53:25.271Z,-6.90
2018-03-01T02:55:52.807Z,-6.90
2018-03-01T02:58:21.082Z,-6.90
2018-03-01T03:00:49.378Z,-7.00
2018-03-01T03:03:16.879Z,-7.00
2018-03-01T03:05:44.382Z,-7.00
2018-03-01T03:08:12.674Z,-7.10
2018-03-01T03:10:40.179Z,-7.10
2018-03-01T03:13:07.701Z,-7.10
2018-03-01T03:15:35.214Z,-7.10
2018-03-01T03:18:02.738Z,-7.10
2018-03-01T03:20:30.238Z,-7.00
2018-03-01T03:22:58.507Z,-7.00
2018-03-01T03:25:26.034Z,-7.00
2018-03-01T03:27:53.538Z,-6.90
2018-03-01T03:30:21.830Z,-6.90
2018-03-01T03:32:49.334Z,-6.90
2018-03-01T03:35:16.865Z,-6.90
2018-03-01T03:37:44.366Z,-6.90
2018-03-01T03:40:11.866Z,-6.90
2018-03-01T03:42:39.400Z,-6.90
2018-03-01T03:45:06.902Z,-6.90
2018-03-01T03:47:34.429Z,-6.90
2018-03-01T03:50:02.724Z,-6.90
2018-03-01T03:52:30.222Z,-6.90
2018-03-01T03:54:57.751Z,-7.00
2018-03-01T03:57:25.267Z,-7.00
2018-03-01T03:59:52.791Z,-7.00
2018-03-01T04:02:20.294Z,-7.10
2018-03-01T04:04:48.561Z,-7.10
2018-03-01T04:07:16.856Z,-7.10
2018-03-01T04:09:45.122Z,-7.20
2018-03-01T04:12:13.476Z,-7.20
2018-03-01T04:14:40.942Z,-7.20
2018-03-01T04:17:08.450Z,-7.20
2018-03-01T04:19:35.978Z,-7.20
2018-03-01T04:22:04.249Z,-7.30
2018-03-01T04:24:32.547Z,-7.30
2018-03-01T04:27:00.050Z,-7.30
2018-03-01T04:29:27.555Z,-7.20
2018-03-01T04:31:55.846Z,-7.20
2018-03-01T04:34:23.349Z,-7.20
2018-03-01T04:36:50.872Z,-7.20
2018-03-01T04:39:18.379Z,-7.20
2018-03-01T04:41:45.878Z,-7.20
2018-03-01T04:44:13.407Z,-7.20
2018-03-01T04:46:40.911Z,-7.20
2018-03-01T04:49:08.439Z,-7.20
2018-03-01T04:51:36.726Z,-7.20
2018-03-01T04:54:04.227Z,-7.20
2018-03-01T04:56:31.755Z,-7.20
2018-03-01T04:58:59.258Z,-7.20
2018-03-01T05:01:27.551Z,-7.20
2018-03-01T05:03:55.059Z,-7.20
2018-03-01T05:06:22.559Z,-7.20
2018-03-01T05:08:50.108Z,-7.20
2018-03-01T05:11:17.626Z,-7.30
2018-03-01T05:13:45.154Z,-7.20
2018-03-01T05:16:13.449Z,-7.30
2018-03-01T05:18:41.703Z,-7.30
2018-03-01T05:21:10.011Z,-7.30
2018-03-01T05:23:37.514Z,-7.30
2018-03-01T05:26:05.030Z,-7.30
2018-03-01T05:28:32.531Z,-7.30
2018-03-01T05:31:00.042Z,-7.30
2018-03-01T05:33:27.580Z,-7.30
2018-03-01T05:35:55.850Z,-7.30
2018-03-01T05:38:23.373Z,-7.30
2018-03-01T05:40:50.875Z,-7.30
2018-03-01T05:43:19.150Z,-7.40
2018-03-01T05:45:47.443Z,-7.40
2018-03-01T05:48:14.946Z,-7.40
2018-03-01T05:50:42.475Z,-7.40
2018-03-01T05:53:09.982Z,-7.40
2018-03-01T05:55:38.258Z,-7.40
2018-03-01T05:58:05.782Z,-7.40
2018-03-01T06:00:33.289Z,-7.30
2018-03-01T06:03:01.582Z,-7.40
2018-03-01T06:05:29.854Z,-7.40
2018-03-01T06:07:58.122Z,-7.30
2018-03-01T06:10:26.414Z,-7.30
2018-03-01T06:12:53.919Z,-7.40
2018-03-01T06:15:21.442Z,-7.30
2018-03-01T06:17:48.946Z,-7.30
2018-03-01T06:20:16.445Z,-7.30
2018-03-01T06:22:44.734Z,-7.30
2018-03-01T06:25:12.246Z,-7.30
2018-03-01T06:27:39.774Z,-7.30
2018-03-01T06:30:07.277Z,-7.30
2018-03-01T06:32:35.546Z,-7.20
2018-03-01T06:35:03.079Z,-7.20
2018-03-01T06:37:30.582Z,-7.00
2018-03-01T06:39:58.874Z,-6.90
2018-03-01T06:42:26.378Z,-6.90
2018-03-01T06:44:53.873Z,-6.90
2018-03-01T06:47:22.158Z,-6.80
2018-03-01T06:49:50.426Z,-6.80
2018-03-01T06:52:18.713Z,-6.80
2018-03-01T06:54:46.215Z,-6.80
2018-03-01T06:57:13.741Z,-6.80
2018-03-01T06:59:41.242Z,-6.80
2018-03-01T07:02:08.770Z,-6.80
2018-03-01T07:04:36.270Z,-6.80
2018-03-01T07:07:03.778Z,-6.80
2018-03-01T07:09:31.303Z,-6.80
2018-03-01T07:11:59.571Z,-6.70
2018-03-01T07:14:27.098Z,-6.70
2018-03-01T07:16:54.649Z,-6.60
2018-03-01T07:19:22.138Z,-6.40
2018-03-01T07:21:49.638Z,-6.40
2018-03-01T07:24:17.155Z,-6.30
2018-03-01T07:26:44.686Z,-6.30
2018-03-01T07:29:12.181Z,-6.30
2018-03-01T07:31:39.707Z,-6.20
2018-03-01T07:34:07.214Z,-6.20
2018-03-01T07:36:35.482Z,-6.10
2018-03-01T07:39:03.805Z,-6.10
2018-03-01T07:41:31.321Z,-6.10
2018-03-01T07:43:59.622Z,-6.10
2018-03-01T07:46:27.122Z,-6.10
2018-03-01T07:48:54.626Z,-6.10
2018-03-01T07:51:22.923Z,-6.00
2018-03-01T07:53:50.422Z,-6.00
2018-03-01T07:56:17.971Z,-6.10
2018-03-01T07:58:45.462Z,-6.00
2018-03-01T08:01:13.758Z,-6.00
2018-03-01T08:03:42.023Z,-6.00
2018-03-01T08:06:10.294Z,-6.00
2018-03-01T08:08:38.586Z,-5.90
2018-03-01T08:11:06.859Z,-5.80
2018-03-01T08:13:35.146Z,-5.80
2018-03-01T08:16:02.656Z,-5.70
2018-03-01T08:18:30.942Z,-5.60
2018-03-01T08:20:58.438Z,-5.70
2018-03-01T08:23:25.966Z,-5.60
2018-03-01T08:25:53.466Z,-5.50
2018-03-01T08:28:20.970Z,-5.50
2018-03-01T08:30:48.494Z,-5.40
2018-03-01T08:33:15.995Z,-5.30
2018-03-01T08:35:43.522Z,-5.30
2018-03-01T08:38:11.030Z,-5.40
2018-03-01T08:40:39.298Z,-5.30
2018-03-01T08:43:06.822Z,-5.30
2018-03-01T08:45:34.346Z,-5.30
2018-03-01T08:48:01.851Z,-5.20
2018-03-01T08:50:29.378Z,-5.10
2018-03-01T08:52:56.883Z,-4.90
2018-03-01T08:55:24.391Z,-4.80
2018-03-01T08:57:51.924Z,-4.70
2018-03-01T09:00:20.198Z,-4.40
2018-03-01T09:02:48.575Z,-4.10
2018-03-01T09:05:16.855Z,-3.70
2018-03-01T09:07:45.156Z,-3.00
2018-03-01T09:10:12.666Z,-3.00
2018-03-01T09:12:40.166Z,-1.60
2018-03-01T09:15:08.455Z,2.60
2018-03-01T09:17:35.958Z,2.50
2018-03-01T09:20:03.482Z,5.00
2018-03-01T09:22:30.979Z,6.60
2018-03-01T09:24:58.484Z,7.40
2018-03-01T09:27:26.012Z,8.70
2018-03-01T09:29:54.606Z,11.00
2018-03-01T09:32:22.903Z,10.80
2018-03-01T09:34:50.407Z,10.80
2018-03-01T09:37:17.911Z,10.20
2018-03-01T09:39:45.438Z,10.60
2018-03-01T09:42:12.940Z,10.50
2018-03-01T09:44:40.518Z,10.40
2018-03-01T09:47:07.993Z,11.10
2018-03-01T09:49:35.497Z,11.60
2018-03-01T09:52:03.030Z,12.30
2018-03-01T09:54:30.534Z,12.90
2018-03-01T09:56:58.068Z,12.80
2018-03-01T09:59:26.338Z,12.10
2018-03-01T10:01:54.606Z,11.90
2018-03-01T10:04:22.898Z,12.10
2018-03-01T10:06:50.444Z,12.10
2018-03-01T10:09:18.714Z,11.80
2018-03-01T10:11:46.988Z,12.20
2018-03-01T10:14:14.487Z,12.20
2018-03-01T10:16:42.011Z,11.60
2018-03-01T10:19:10.278Z,11.70
2018-03-01T10:21:37.805Z,11.70
2018-03-01T10:24:05.308Z,12.90
2018-03-01T10:26:33.579Z,15.20
2018-03-01T10:29:01.871Z,16.50
2018-03-01T10:31:30.145Z,15.60
2018-03-01T10:33:58.443Z,15.40
2018-03-01T10:36:25.951Z,15.40
2018-03-01T10:38:53.459Z,14.30
2018-03-01T10:41:20.990Z,13.30
2018-03-01T10:43:49.258Z,12.80
2018-03-01T10:46:16.782Z,12.80
2018-03-01T10:48:44.282Z,13.10
2018-03-01T10:51:12.554Z,11.40
2018-03-01T10:53:40.847Z,11.60
2018-03-01T10:56:09.114Z,11.80
2018-03-01T10:58:37.410Z,11.20
2018-03-01T11:01:10.571Z,11.20
2018-03-01T11:03:38.870Z,11.40
2018-03-01T11:06:07.134Z,11.30
2018-03-01T11:08:35.401Z,12.40
2018-03-01T11:11:02.926Z,12.40
2018-03-01T11:13:30.435Z,13.70
2018-03-01T11:15:58.727Z,14.00
2018-03-01T11:18:26.238Z,14.00
2018-03-01T11:20:53.743Z,14.40
2018-03-01T11:23:21.272Z,15.00
2018-03-01T11:25:49.538Z,14.60
2018-03-01T11:28:17.063Z,14.50
2018-03-01T11:30:44.567Z,15.00
2018-03-01T11:33:12.851Z,14.90
2018-03-01T11:35:41.143Z,14.40
2018-03-01T11:38:08.658Z,14.30
2018-03-01T11:40:36.182Z,13.40
2018-03-01T11:43:03.693Z,13.20
2018-03-01T11:45:31.968Z,13.10
2018-03-01T11:47:59.499Z,13.00
2018-03-01T11:50:27.055Z,12.60
2018-03-01T11:52:54.583Z,12.90
2018-03-01T11:55:22.087Z,13.30
2018-03-01T11:57:49.591Z,13.20
2018-03-01T12:00:17.133Z,13.00
2018-03-01T12:02:45.403Z,12.40
2018-03-01T12:05:13.698Z,12.50
2018-03-01T12:07:41.199Z,12.50
2018-03-01T12:10:08.703Z,12.80
2018-03-01T12:12:36.995Z,15.10
2018-03-01T12:15:04.499Z,15.10
2018-03-01T12:17:32.027Z,16.20
2018-03-01T12:19:59.526Z,16.50
2018-03-01T12:22:27.030Z,15.70
2018-03-01T12:24:54.563Z,15.20
2018-03-01T12:27:22.830Z,14.40
2018-03-01T12:29:50.354Z,14.30
2018-03-01T12:32:17.858Z,14.10
2018-03-01T12:34:46.131Z,14.20
2018-03-01T12:37:14.423Z,13.90
2018-03-01T12:39:42.694Z,13.80
2018-03-01T12:42:10.987Z,13.60
2018-03-01T12:44:38.494Z,13.60
2018-03-01T12:47:05.995Z,13.50
2018-03-01T12:49:34.287Z,12.70
2018-03-01T12:52:01.795Z,12.70
2018-03-01T12:54:29.322Z,12.70
2018-03-01T12:56:56.827Z,12.50
2018-03-01T12:59:25.102Z,10.30
2018-03-01T13:01:52.634Z,10.20
2018-03-01T13:04:20.903Z,9.10
2018-03-01T13:06:48.427Z,9.10
2018-03-01T13:09:15.922Z,8.80
2018-03-01T13:11:43.418Z,8.80
2018-03-01T13:14:11.702Z,8.90
2018-03-01T13:16:39.968Z,9.00
2018-03-01T13:19:07.495Z,9.00
2018-03-01T13:21:35.758Z,8.80
2018-03-01T13:24:03.263Z,8.80
2018-03-01T13:26:30.782Z,8.80
2018-03-01T13:28:59.050Z,8.60
2018-03-01T13:31:27.530Z,8.60
2018-03-01T13:34:00.779Z,8.40
2018-03-01T13:36:29.070Z,7.80
2018-03-01T13:38:56.578Z,7.80
2018-03-01T13:41:25.047Z,7.20
2018-03-01T13:43:52.571Z,7.00
2018-03-01T13:46:23.766Z,7.00
2018-03-01T13:48:51.282Z,7.20
2018-03-01T13:51:18.783Z,7.50
2018-03-01T13:53:46.286Z,7.70
2018-03-01T13:56:14.574Z,8.30
2018-03-01T13:58:42.078Z,8.20
2018-03-01T14:01:09.596Z,8.40
2018-03-01T14:03:37.103Z,8.60
2018-03-01T14:06:07.102Z,8.50
2018-03-01T14:08:34.621Z,8.60
2018-03-01T14:11:02.131Z,8.30
2018-03-01T14:13:49.559Z,7.70
2018-03-01T14:16:17.062Z,7.50
2018-03-01T14:18:50.126Z,7.60
2018-03-01T14:21:23.210Z,7.60
2018-03-01T14:23:56.386Z,7.50
2018-03-01T14:29:31.811Z,7.20
2018-03-01T14:31:59.350Z,7.10
2018-03-01T14:34:27.614Z,6.80
2018-03-01T14:36:55.903Z,6.80
2018-03-01T14:39:24.166Z,6.70
2018-03-01T14:41:52.454Z,6.50
2018-03-01T14:44:20.710Z,6.50
2018-03-01T14:46:48.207Z,6.50
2018-03-01T14:49:15.741Z,6.50
2018-03-01T14:51:44.002Z,6.40
2018-03-01T14:54:11.524Z,6.40
2018-03-01T14:56:39.022Z,5.90
2018-03-01T14:59:06.519Z,6.00
2018-03-01T15:01:34.033Z,5.90
2018-03-01T15:04:01.531Z,5.80
2018-03-01T15:06:29.824Z,5.70
2018-03-01T15:08:57.326Z,5.70
2018-03-01T15:11:24.820Z,5.60
2018-03-01T15:13:53.101Z,5.40
2018-03-01T15:16:21.365Z,5.30
2018-03-01T15:18:49.655Z,5.10
2018-03-01T15:21:17.920Z,4.90
2018-03-01T15:23:46.183Z,4.70
2018-03-01T15:26:13.698Z,4.60
2018-03-01T15:28:41.198Z,4.50
2018-03-01T15:31:08.719Z,4.50
2018-03-01T15:33:36.207Z,4.50
2018-03-01T15:36:03.706Z,4.40
2018-03-01T15:38:31.232Z,4.40
2018-03-01T15:40:58.730Z,4.40
2018-03-01T15:43:26.254Z,4.20
2018-03-01T15:45:53.751Z,4.00
2018-03-01T15:48:21.256Z,3.90
2018-03-01T15:50:48.781Z,3.70
2018-03-01T15:53:16.284Z,3.60
2018-03-01T15:55:43.811Z,3.40
2018-03-01T15:58:11.311Z,3.30
2018-03-01T16:00:38.806Z,3.10
2018-03-01T16:03:06.327Z,2.90
2018-03-01T16:05:33.877Z,2.80
2018-03-01T16:08:01.370Z,2.70
2018-03-01T16:10:29.635Z,2.70
2018-03-01T16:12:57.135Z,2.70
2018-03-01T16:15:24.651Z,2.70
2018-03-01T16:17:52.190Z,2.50
2018-03-01T16:20:19.695Z,2.40
2018-03-01T16:22:47.962Z,2.40
2018-03-01T16:25:16.238Z,2.20
2018-03-01T16:27:44.522Z,2.10
2018-03-01T16:30:12.795Z,1.90
2018-03-01T16:32:41.089Z,1.80
2018-03-01T16:35:08.591Z,1.80
2018-03-01T16:37:36.087Z,1.70
2018-03-01T16:40:04.374Z,1.70
2018-03-01T16:42:32.635Z,1.60
2018-03-01T16:45:00.923Z,1.50
2018-03-01T16:47:29.186Z,1.40
2018-03-01T16:49:57.451Z,1.40
2018-03-01T16:52:24.987Z,1.40
2018-03-01T16:54:52.478Z,1.30
2018-03-01T16:57:20.762Z,1.10
2018-03-01T16:59:49.022Z,1.10
2018-03-01T17:02:16.518Z,1.10
2018-03-01T17:04:44.039Z,1.10
2018-03-01T17:07:11.546Z,1.00
2018-03-01T17:09:39.070Z,0.90
2018-03-01T17:12:07.331Z,0.90
2018-03-01T17:14:34.831Z,0.80
2018-03-01T17:17:02.349Z,0.80
2018-03-01T17:19:29.852Z,0.60
2018-03-01T17:21:57.382Z,0.70
2018-03-01T17:24:25.653Z,0.50
2018-03-01T17:26:53.910Z,0.50
2018-03-01T17:29:21.434Z,0.50
2018-03-01T17:31:48.943Z,0.50
2018-03-01T17:34:17.230Z,0.40
2018-03-01T17:36:45.486Z,0.40
2018-03-01T17:39:12.977Z,0.40
2018-03-01T17:41:40.497Z,0.30
2018-03-01T17:44:08.014Z,0.30
2018-03-01T17:46:35.535Z,0.20
2018-03-01T17:49:03.805Z,0.20
2018-03-01T17:51:32.066Z,0.10
2018-03-01T17:53:59.586Z,0.10
2018-03-01T17:56:27.087Z,0.10
2018-03-01T17:58:54.609Z,0.10
2018-03-01T18:01:22.110Z,0.10
2018-03-01T18:03:49.607Z,0.00
2018-03-01T18:06:17.130Z,0.00
2018-03-01T18:08:44.630Z,0.00
2018-03-01T18:11:12.146Z,0.00
2018-03-01T18:13:39.665Z,-0.20
2018-03-01T18:16:07.162Z,-0.20
2018-03-01T18:18:34.690Z,-0.30
2018-03-01T18:21:02.191Z,-0.20
2018-03-01T18:23:29.731Z,-0.30
2018-03-01T18:25:57.235Z,-0.30
2018-03-01T18:28:24.738Z,-0.20
2018-03-01T18:30:52.267Z,-0.30
2018-03-01T18:33:19.771Z,-0.30
2018-03-01T18:35:47.294Z,-0.30
2018-03-01T18:38:14.798Z,-0.40
2018-03-01T18:40:43.062Z,-0.40
2018-03-01T18:43:10.599Z,-0.50
2018-03-01T18:45:38.097Z,-0.50
2018-03-01T18:48:06.387Z,-0.50
2018-03-01T18:50:33.895Z,-0.60
2018-03-01T18:53:01.399Z,-0.60
2018-03-01T18:55:28.931Z,-0.60
2018-03-01T18:57:56.434Z,-0.60
2018-03-01T19:00:23.962Z,-0.60
2018-03-01T19:02:52.249Z,-0.70
2018-03-01T19:05:19.762Z,-0.70
2018-03-01T19:07:47.286Z,-0.80
2018-03-01T19:10:14.794Z,-0.80
2018-03-01T19:12:42.319Z,-0.90
2018-03-01T19:15:09.822Z,-0.90
2018-03-01T19:17:37.328Z,-0.90
2018-03-01T19:20:04.855Z,-0.90
2018-03-01T19:22:33.123Z,-0.90
2018-03-01T19:25:01.415Z,-0.90
2018-03-01T19:27:28.914Z,-0.90
2018-03-01T19:29:56.418Z,-0.80
2018-03-01T19:32:24.717Z,-0.80
2018-03-01T19:34:52.226Z,-0.80
2018-03-01T19:37:19.746Z,-0.80
2018-03-01T19:39:47.248Z,-0.80
2018-03-01T19:42:14.752Z,-0.80
2018-03-01T19:44:42.278Z,-0.90
2018-03-01T19:47:09.783Z,-0.90
2018-03-01T19:49:37.307Z,-0.90
2018-03-01T19:52:05.575Z,-1.00
2018-03-01T19:54:33.862Z,-1.00
2018-03-01T19:57:02.141Z,-1.00
2018-03-01T19:59:30.426Z,-1.00
2018-03-01T20:01:57.925Z,-1.10
2018-03-01T20:04:25.455Z,-1.10
2018-03-01T20:06:52.966Z,-1.10
2018-03-01T20:09:20.467Z,-1.10
2018-03-01T20:11:47.994Z,-1.10
2018-03-01T20:14:15.499Z,-1.10
2018-03-01T20:16:43.024Z,-1.10
2018-03-01T20:19:11.291Z,-1.20
2018-03-01T20:21:40.294Z,-1.30
2018-03-01T20:24:08.582Z,-1.30
2018-03-01T20:26:36.088Z,-1.30
2018-03-01T20:29:03.615Z,-1.30
2018-03-01T20:31:31.135Z,-1.30
2018-03-01T20:33:59.402Z,-1.30
2018-03-01T20:36:26.926Z,-1.30
2018-03-01T20:38:54.418Z,-1.30
2018-03-01T20:41:21.938Z,-1.30
2018-03-01T20:43:49.442Z,-1.30
2018-03-01T20:46:16.948Z,-1.40
2018-03-01T20:48:44.473Z,-1.40
2018-03-01T20:51:11.995Z,-1.50
2018-03-01T20:53:39.522Z,-1.50
2018-03-01T20:56:07.023Z,-1.50
2018-03-01T20:58:34.523Z,-1.50
2018-03-01T21:01:02.082Z,-1.60
2018-03-01T21:03:30.334Z,-1.60
2018-03-01T21:05:58.629Z,-1.80
2018-03-01T21:08:26.134Z,-1.80
2018-03-01T21:10:53.663Z,-1.80
2018-03-01T21:13:21.182Z,-1.80
2018-03-01T21:15:48.683Z,-1.90
2018-03-01T21:18:16.208Z,-2.00
2018-03-01T21:20:44.479Z,-2.20
2018-03-01T21:23:12.767Z,-2.20
2018-03-01T21:25:41.055Z,-2.30
2018-03-01T21:28:08.557Z,-2.30
2018-03-01T21:30:36.078Z,-2.30
2018-03-01T21:33:03.583Z,-2.40
2018-03-01T21:35:31.122Z,-2.50
2018-03-01T21:37:58.627Z,-2.60
2018-03-01T21:40:26.930Z,-2.80
2018-03-01T21:42:54.435Z,-2.80
2018-03-01T21:45:21.934Z,-2.80
2018-03-01T21:47:50.226Z,-2.90
2018-03-01T21:50:17.726Z,-2.90
2018-03-01T21:52:45.255Z,-2.90
2018-03-01T21:55:12.759Z,-2.90
2018-03-01T21:57:40.294Z,-3.00
2018-03-01T22:00:07.794Z,-3.00
2018-03-01T22:02:35.296Z,-3.00
2018-03-01T22:05:02.823Z,-3.00
2018-03-01T22:07:30.330Z,-3.10
2018-03-01T22:09:57.854Z,-3.10
2018-03-01T22:12:26.120Z,-3.10
2018-03-01T22:14:53.646Z,-3.20
2018-03-01T22:17:21.147Z,-3.20
2018-03-01T22:19:49.406Z,-3.30
2018-03-01T22:22:16.930Z,-3.30
2018-03-01T22:24:44.427Z,-3.30
2018-03-01T22:27:11.954Z,-3.30
2018-03-01T22:29:39.460Z,-3.30
2018-03-01T22:32:07.755Z,-3.30
2018-03-01T22:34:35.263Z,-3.30
2018-03-01T22:37:02.786Z,-3.30
2018-03-01T22:39:30.286Z,-3.30
2018-03-01T22:41:57.810Z,-3.40
2018-03-01T22:44:25.306Z,-3.40
2018-03-01T22:46:52.836Z,-3.40
2018-03-01T22:49:20.335Z,-3.40
2018-03-01T22:51:47.858Z,-3.40
2018-03-01T22:54:15.363Z,-3.50
2018-03-01T22:56:43.635Z,-3.50
2018-03-01T22:59:11.158Z,-3.50
2018-03-01T23:01:38.654Z,-3.50
2018-03-01T23:04:06.201Z,-3.50
2018-03-01T23:06:33.695Z,-3.60
2018-03-01T23:09:01.219Z,-3.60
2018-03-01T23:11:28.718Z,-3.60
2018-03-01T23:13:56.238Z,-3.60
2018-03-01T23:16:23.758Z,-3.70
2018-03-01T23:18:51.258Z,-3.70
2018-03-01T23:21:18.775Z,-3.70
2018-03-01T23:23:46.270Z,-3.70
2018-03-01T23:26:13.795Z,-3.70
2018-03-01T23:28:41.298Z,-3.80
2018-03-01T23:31:09.562Z,-3.90
2018-03-01T23:33:37.086Z,-3.90
2018-03-01T23:36:04.583Z,-3.90
2018-03-01T23:38:32.102Z,-3.90
2018-03-01T23:40:59.602Z,-3.80
2018-03-01T23:43:27.127Z,-3.80
2018-03-01T23:45:54.627Z,-3.80
2018-03-01T23:48:22.914Z,-3.90
2018-03-01T23:50:51.178Z,-3.80
2018-03-01T23:53:19.468Z,-3.90
2018-03-01T23:55:47.738Z,-4.00
2018-03-01T23:58:16.006Z,-4.00
